EGBB/BHX METAR and TAF weather

Enter ICAO airport designator
Station Type Date Time Source
EGBB METAR 2022/01/27 22:50 UTC NOAA

EGBB 272250Z 26006KT CAVOK 03/03 Q1033


Station Type Date Time Source
EGBB Decoded METAR 2022/01/27 22:50 UTC NOAA

Birmingham / Airport, United Kingdom (EGBB) 52-27N 001-44W 0M
Jan 27, 2022 - 05:50 PM EST / 2022.01.27 2250 UTC
Wind: from the W (260 degrees) at 7 MPH (6 KT):0
Visibility: greater than 7 mile(s):0
Temperature: 37 F (3 C)
Dew Point: 37 F (3 C)
Relative Humidity: 100%
Pressure (altimeter): 30.50 in. Hg (1033 hPa)
ob: EGBB 272250Z 26006KT CAVOK 03/03 Q1033
cycle: 23

Station Type Date Time Source
EGBB TAF 2022/01/27 21:38 UTC NOAA

TAF
AMD EGBB 272130Z 2721/2818 25003KT 9999 FEW014 SCT020 PROB30 2800/2804 8000 PROB40 2804/2810 4000 BR
BECMG 2815/2818 25013KT PROB30
TEMPO 2815/2818 BKN014

Example: see airport list